WXM80 ListenWXM80 Stop

You find our weather info also at:

UK Metoffice

WeatherCloud

Weather Underground

Northeastern Weather Network

AWEKAS

Citizen Weather Observer Program (CWOP)

HAMweather, WeatherForYou, PWS Weather


Weather Underground History page Text

Daily Summary for February 21, 2018 Units:  English    Metric   Both
« Previous Day
Next Day »
Daily Weekly Monthly Yearly Custom
  High: Low: Average:
Temperature: 76.0 °F 51.5 °F 61.9 °F
Dew Point: 63.6 °F 43.4 °F 56.7 °F
Humidity: 98 % 64 % 84 %
Wind Speed: 11.5 mph 0.0 mph 4.7 mph
Wind Gust: 18.4 mph - -
Wind:- - SSW
Pressure: 30.15 in 29.93 in -
Precipitation: 0.03 in    
Historical Graphs
 
 
Tabular Data for February 21, 2018
Time Temperature Dew Point Pressure Wind Wind Speed Wind Gust Humidity Rainfall Rate (Hourly)
00:02 54.3 °F 52.3 °F 30.08 in WSW 0.9 mph 3.5 mph 93 % 0.00 in
00:07 54.2 °F 52.2 °F 30.08 in South 3.4 mph 6.9 mph 93 % 0.00 in
00:12 54.0 °F 52.0 °F 30.08 in SW 3.5 mph 8.1 mph 93 % 0.00 in
00:17 53.9 °F 51.9 °F 30.08 in South 4.1 mph 8.1 mph 93 % 0.00 in
00:22 53.8 °F 52.1 °F 30.08 in SW 4.5 mph 8.0 mph 94 % 0.00 in
00:27 53.7 °F 52.0 °F 30.08 in SW 2.2 mph 3.5 mph 94 % 0.00 in
00:32 53.6 °F 51.9 °F 30.08 in SW 2.3 mph 3.5 mph 94 % 0.00 in
00:37 53.6 °F 51.9 °F 30.07 in West 2.6 mph 5.8 mph 94 % 0.00 in
00:42 53.5 °F 51.8 °F 30.07 in WSW 0.6 mph 3.5 mph 94 % 0.00 in
00:48 53.5 °F 51.8 °F 30.07 in SW 0.3 mph 3.5 mph 94 % 0.00 in
00:53 53.5 °F 51.8 °F 30.07 in West 2.5 mph 4.6 mph 94 % 0.00 in
00:58 53.5 °F 51.8 °F 30.07 in Calm   2.3 mph 94 % 0.00 in
01:03 53.5 °F 52.1 °F 30.07 in SSW 1.8 mph 3.5 mph 95 % 0.00 in
01:08 53.6 °F 52.2 °F 30.06 in SW 2.0 mph 4.6 mph 95 % 0.00 in
01:13 53.6 °F 52.2 °F 30.06 in SSW 2.0 mph 3.5 mph 95 % 0.00 in
01:18 53.7 °F 52.3 °F 30.06 in Calm     95 % 0.00 in
01:23 53.8 °F 52.4 °F 30.06 in SW 0.3 mph 2.3 mph 95 % 0.00 in
01:28 53.8 °F 52.4 °F 30.06 in Calm     95 % 0.00 in
01:33 53.9 °F 52.5 °F 30.05 in Calm   3.0 mph 95 % 0.00 in
01:38 54.1 °F 53.0 °F 30.05 in Calm     96 % 0.00 in
01:43 54.1 °F 53.0 °F 30.05 in SSW 2.1 mph 3.5 mph 96 % 0.00 in
01:48 54.3 °F 53.2 °F 30.05 in WNW 3.0 mph 8.1 mph 96 % 0.00 in
01:53 54.5 °F 53.4 °F 30.05 in South 1.9 mph 5.8 mph 96 % 0.00 in
01:58 54.7 °F 53.6 °F 30.04 in SW 1.3 mph 5.0 mph 96 % 0.00 in
02:03 54.9 °F 54.1 °F 30.05 in SSW 3.1 mph 7.0 mph 97 % 0.00 in
02:08 55.2 °F 54.4 °F 30.04 in South 3.0 mph 9.2 mph 97 % 0.00 in
02:13 55.4 °F 54.6 °F 30.04 in South 6.6 mph 10.4 mph 97 % 0.00 in
02:18 55.7 °F 54.9 °F 30.04 in SSW 2.3 mph 5.0 mph 97 % 0.00 in
02:24 55.9 °F 55.1 °F 30.03 in SSW 3.4 mph 5.8 mph 97 % 0.00 in
02:29 56.5 °F 55.7 °F 30.04 in SSW 7.4 mph 13.8 mph 97 % 0.00 in
02:34 57.0 °F 56.2 °F 30.04 in SSW 6.5 mph 11.5 mph 97 % 0.00 in
02:39 57.5 °F 56.7 °F 30.04 in SW 8.1 mph 18.4 mph 97 % 0.00 in
02:44 57.9 °F 57.3 °F 30.03 in SSW 5.7 mph 10.0 mph 98 % 0.00 in
02:49 58.1 °F 57.3 °F 30.03 in SSW 5.3 mph 9.2 mph 97 % 0.00 in
02:54 58.1 °F 57.3 °F 30.04 in SSW 8.1 mph 12.7 mph 97 % 0.00 in
02:59 58.1 °F 57.3 °F 30.04 in SSW 8.9 mph 13.8 mph 97 % 0.00 in
03:04 58.2 °F 57.4 °F 30.04 in WSW 6.2 mph 12.7 mph 97 % 0.00 in
03:09 58.1 °F 57.3 °F 30.03 in SSW 5.4 mph 16.0 mph 97 % 0.00 in
03:14 58.1 °F 57.3 °F 30.04 in SW 5.1 mph 17.3 mph 97 % 0.00 in
03:19 58.1 °F 57.3 °F 30.04 in SSW 5.7 mph 11.5 mph 97 % 0.00 in
03:24 58.0 °F 57.2 °F 30.04 in South 4.7 mph 12.0 mph 97 % 0.00 in
03:29 58.0 °F 57.2 °F 30.03 in SSW 6.1 mph 11.5 mph 97 % 0.00 in
03:34 57.9 °F 56.8 °F 30.03 in SW 4.0 mph 8.1 mph 96 % 0.00 in
03:39 57.8 °F 56.7 °F 30.03 in WSW 5.0 mph 9.2 mph 96 % 0.00 in
03:45 57.7 °F 56.6 °F 30.03 in SW 6.8 mph 11.5 mph 96 % 0.00 in
03:50 57.6 °F 56.5 °F 30.04 in WSW 5.5 mph 11.5 mph 96 % 0.00 in
03:55 57.5 °F 56.4 °F 30.04 in SW 5.2 mph 8.1 mph 96 % 0.00 in
04:00 57.3 °F 55.9 °F 30.04 in WSW 4.9 mph 9.0 mph 95 % 0.00 in
04:05 57.2 °F 55.8 °F 30.04 in SSW 5.0 mph 9.2 mph 95 % 0.00 in
04:10 57.0 °F 55.6 °F 30.05 in WSW 2.2 mph 4.6 mph 95 % 0.00 in
04:15 56.9 °F 55.5 °F 30.05 in SW 3.0 mph 10.4 mph 95 % 0.00 in
04:20 56.8 °F 55.4 °F 30.05 in SW 5.0 mph 9.2 mph 95 % 0.00 in
04:25 56.7 °F 55.3 °F 30.05 in SW 4.0 mph 7.0 mph 95 % 0.00 in
04:30 56.6 °F 55.2 °F 30.06 in SSW 3.9 mph 5.8 mph 95 % 0.00 in
04:35 56.6 °F 55.2 °F 30.06 in SSW 5.1 mph 7.0 mph 95 % 0.00 in
04:40 56.5 °F 55.1 °F 30.06 in South 1.5 mph 5.0 mph 95 % 0.00 in
04:45 56.5 °F 55.1 °F 30.06 in SW 1.8 mph 4.6 mph 95 % 0.00 in
04:51 56.4 °F 55.0 °F 30.05 in SW 3.0 mph 6.0 mph 95 % 0.00 in
04:56 56.4 °F 55.0 °F 30.05 in SSW 3.0 mph 9.0 mph 95 % 0.00 in
05:01 56.4 °F 55.0 °F 30.04 in SSW 0.3 mph 1.2 mph 95 % 0.00 in
05:06 56.3 °F 54.9 °F 30.04 in SSW 3.0 mph 7.0 mph 95 % 0.00 in
05:11 56.3 °F 54.9 °F 30.05 in South 2.2 mph 6.9 mph 95 % 0.00 in
05:16 56.3 °F 54.8 °F 30.04 in SSW 2.0 mph 6.0 mph 95 % 0.00 in
05:21 56.3 °F 54.9 °F 30.04 in SW 3.0 mph 7.0 mph 95 % 0.00 in
05:26 56.3 °F 54.9 °F 30.04 in SW 2.3 mph 5.0 mph 95 % 0.00 in
05:31 56.3 °F 54.9 °F 30.04 in SW 2.0 mph 5.0 mph 95 % 0.00 in
05:36 56.3 °F 54.9 °F 30.04 in SSW 1.0 mph 3.5 mph 95 % 0.00 in
05:41 56.2 °F 54.8 °F 30.04 in South 3.4 mph 3.5 mph 95 % 0.00 in
05:46 56.1 °F 54.7 °F 30.04 in South 3.0 mph 6.0 mph 95 % 0.00 in
05:51 55.9 °F 54.5 °F 30.04 in South 2.0 mph 4.0 mph 95 % 0.00 in
05:56 55.8 °F 54.3 °F 30.04 in SSW 5.0 mph 9.0 mph 95 % 0.00 in
06:01 55.6 °F 54.2 °F 30.04 in SSW 4.1 mph 5.0 mph 95 % 0.00 in
06:06 55.5 °F 53.8 °F 30.04 in SSW 2.0 mph 7.0 mph 94 % 0.00 in
06:11 55.5 °F 54.1 °F 30.03 in SSW 1.0 mph 6.0 mph 95 % 0.00 in
06:16 55.4 °F 54.0 °F 30.04 in SSW 3.0 mph 7.0 mph 95 % 0.00 in
06:21 55.4 °F 54.0 °F 30.04 in SSW 2.0 mph 5.0 mph 95 % 0.00 in
06:26 55.4 °F 54.0 °F 30.04 in SSW 3.0 mph 7.0 mph 95 % 0.00 in
06:31 55.4 °F 54.0 °F 30.03 in SSW 2.0 mph 8.0 mph 95 % 0.00 in
06:36 55.4 °F 54.0 °F 30.04 in SW 1.0 mph 9.0 mph 95 % 0.00 in
06:41 55.4 °F 54.0 °F 30.03 in SW 2.0 mph 6.0 mph 95 % 0.00 in
06:46 55.3 °F 53.9 °F 30.04 in SW 2.0 mph 7.0 mph 95 % 0.00 in
06:51 55.3 °F 53.9 °F 30.04 in SSW 3.0 mph 6.0 mph 95 % 0.00 in
06:56 55.1 °F 53.7 °F 30.05 in SSW 3.0 mph 6.0 mph 95 % 0.00 in
07:01 54.8 °F 53.1 °F 30.05 in South 4.9 mph 6.0 mph 94 % 0.00 in
07:06 54.5 °F 52.8 °F 30.04 in SSW 3.0 mph 8.0 mph 94 % 0.00 in
07:11 54.3 °F 52.6 °F 30.04 in South 3.5 mph 5.0 mph 94 % 0.00 in
07:16 54.1 °F 52.4 °F 30.05 in SSW 2.0 mph 7.0 mph 94 % 0.00 in
07:21 54.0 °F 52.3 °F 30.05 in SSW 2.0 mph 5.8 mph 94 % 0.00 in
07:26 53.9 °F 52.2 °F 30.05 in SSW 3.0 mph 7.0 mph 94 % 0.00 in
07:31 53.8 °F 52.4 °F 30.05 in SSW 5.0 mph 8.0 mph 95 % 0.00 in
07:36 53.7 °F 52.3 °F 30.05 in SSW 3.0 mph 9.0 mph 95 % 0.00 in
07:41 53.7 °F 52.3 °F 30.05 in SSW 2.0 mph 5.0 mph 95 % 0.00 in
07:46 53.7 °F 52.3 °F 30.05 in SSW 2.0 mph 8.0 mph 95 % 0.00 in
07:51 53.7 °F 52.3 °F 30.05 in SSW 3.0 mph 7.0 mph 95 % 0.00 in
07:56 54.0 °F 52.9 °F 30.05 in SSW 5.0 mph 8.0 mph 96 % 0.00 in
08:01 54.2 °F 53.1 °F 30.05 in South 4.5 mph 6.9 mph 96 % 0.00 in
08:06 54.4 °F 53.3 °F 30.05 in SSW 5.6 mph 11.5 mph 96 % 0.00 in
08:10 54.4 °F 53.3 °F 30.04 in SSW 3.0 mph 10.4 mph 96 % 0.00 in
08:15 54.7 °F 53.6 °F 30.04 in SSW 4.5 mph 9.2 mph 96 % 0.00 in
08:20 55.0 °F 53.9 °F 30.04 in SSW 2.8 mph 5.8 mph 96 % 0.00 in
08:25 55.3 °F 54.2 °F 30.04 in SW 1.5 mph 4.6 mph 96 % 0.00 in
08:30 55.4 °F 54.3 °F 30.04 in SW 3.2 mph 4.6 mph 96 % 0.00 in
08:35 55.5 °F 54.7 °F 30.04 in SSW 1.9 mph 3.5 mph 97 % 0.00 in
08:40 55.7 °F 54.9 °F 30.04 in South 2.4 mph 4.6 mph 97 % 0.00 in
08:45 55.8 °F 54.7 °F 30.03 in SSW 1.7 mph 3.5 mph 96 % 0.00 in
08:50 56.0 °F 54.9 °F 30.04 in South 3.4 mph 8.0 mph 96 % 0.00 in
08:55 56.2 °F 55.4 °F 30.03 in SSW 5.0 mph 8.0 mph 97 % 0.00 in
09:00 56.6 °F 55.8 °F 30.04 in SW 2.7 mph 6.9 mph 97 % 0.00 in
09:05 56.9 °F 56.1 °F 30.03 in SSW 2.0 mph 5.0 mph 97 % 0.00 in
09:10 57.2 °F 56.4 °F 30.03 in SSW 3.8 mph 10.4 mph 97 % 0.00 in
09:16 57.5 °F 56.7 °F 30.03 in SSW 6.0 mph 12.0 mph 97 % 0.00 in
09:21 57.8 °F 56.7 °F 30.03 in SSW 6.0 mph 10.0 mph 96 % 0.00 in
09:26 58.2 °F 57.0 °F 30.03 in SSW 2.0 mph 8.0 mph 96 % 0.00 in
09:31 58.5 °F 57.4 °F 30.03 in SSW 5.3 mph 10.4 mph 96 % 0.00 in
09:36 58.8 °F 57.6 °F 30.03 in SW 5.0 mph 10.0 mph 96 % 0.00 in
09:41 59.1 °F 58.0 °F 30.04 in SW 6.0 mph 9.0 mph 96 % 0.00 in
09:46 59.4 °F 58.0 °F 30.04 in SW 2.0 mph 7.0 mph 95 % 0.00 in
09:51 59.6 °F 58.2 °F 30.04 in SSW 3.0 mph 7.0 mph 95 % 0.00 in
09:56 59.8 °F 58.1 °F 30.04 in SSW 6.0 mph 9.0 mph 94 % 0.00 in
10:01 60.0 °F 58.3 °F 30.04 in SSW 3.3 mph 6.9 mph 94 % 0.00 in
10:06 60.2 °F 58.5 °F 30.03 in SSW 6.0 mph 12.0 mph 94 % 0.00 in
10:11 60.5 °F 58.8 °F 30.03 in SW 7.1 mph 9.2 mph 94 % 0.00 in
10:16 60.9 °F 59.2 °F 30.03 in SSW 3.0 mph 11.0 mph 94 % 0.00 in
10:21 61.4 °F 59.3 °F 30.04 in SSW 3.0 mph 15.0 mph 93 % 0.00 in
10:26 62.0 °F 59.9 °F 30.03 in SSW 7.0 mph 14.0 mph 93 % 0.00 in
10:31 62.5 °F 60.1 °F 30.03 in SW 7.0 mph 13.0 mph 92 % 0.00 in
10:36 63.1 °F 60.4 °F 30.02 in SW 6.0 mph 13.0 mph 91 % 0.00 in
10:41 63.6 °F 60.6 °F 30.03 in SW 7.0 mph 16.0 mph 90 % 0.00 in
10:46 64.2 °F 60.9 °F 30.02 in SW 7.0 mph 12.0 mph 89 % 0.00 in
10:51 64.7 °F 60.7 °F 30.02 in SW 6.0 mph 13.0 mph 87 % 0.00 in
10:56 65.0 °F 60.7 °F 30.01 in SW 8.0 mph 16.0 mph 86 % 0.00 in
11:01 65.3 °F 61.0 °F 30.01 in SSW 7.1 mph 10.4 mph 86 % 0.00 in
11:06 65.6 °F 61.0 °F 30.01 in SSW 10.8 mph 18.4 mph 85 % 0.00 in
11:11 65.8 °F 60.8 °F 30.01 in WSW 8.2 mph 16.0 mph 84 % 0.00 in
11:16 66.1 °F 61.1 °F 30.01 in SW 3.9 mph 11.5 mph 84 % 0.00 in
11:21 66.5 °F 61.2 °F 30.00 in SW 5.7 mph 9.2 mph 83 % 0.00 in
11:26 67.0 °F 61.7 °F 30.00 in South 6.9 mph 11.5 mph 83 % 0.00 in
11:31 67.6 °F 61.9 °F 30.00 in SSW 6.8 mph 11.5 mph 82 % 0.00 in
11:36 68.2 °F 62.1 °F 30.00 in SW 7.6 mph 12.7 mph 81 % 0.00 in
11:41 68.6 °F 61.8 °F 29.99 in SSW 9.7 mph 15.0 mph 79 % 0.00 in
11:46 68.9 °F 62.1 °F 29.99 in SSW 5.7 mph 10.0 mph 79 % 0.00 in
11:51 69.1 °F 62.3 °F 29.99 in WSW 5.9 mph 12.7 mph 79 % 0.00 in
11:56 69.3 °F 62.1 °F 29.99 in SW 7.2 mph 15.0 mph 78 % 0.00 in
12:01 69.5 °F 62.3 °F 29.98 in SW 6.4 mph 11.5 mph 78 % 0.00 in
12:06 69.8 °F 62.3 °F 29.98 in SSW 7.8 mph 15.0 mph 77 % 0.00 in
12:12 70.0 °F 62.5 °F 29.98 in South 5.8 mph 8.1 mph 77 % 0.00 in
12:17 70.3 °F 62.7 °F 29.97 in SSW 4.0 mph 10.4 mph 77 % 0.00 in
12:22 70.8 °F 62.9 °F 29.97 in SW 5.6 mph 10.4 mph 76 % 0.00 in
12:27 71.3 °F 62.6 °F 29.97 in SSW 9.2 mph 13.8 mph 74 % 0.00 in
12:32 71.6 °F 62.9 °F 29.97 in SSW 7.7 mph 11.5 mph 74 % 0.00 in
12:37 71.9 °F 63.2 °F 29.96 in SSW 4.3 mph 7.0 mph 74 % 0.00 in
12:42 72.3 °F 63.2 °F 29.96 in SW 6.3 mph 11.5 mph 73 % 0.00 in
12:47 72.7 °F 62.8 °F 29.95 in SSW 6.8 mph 11.5 mph 71 % 0.00 in
12:52 73.2 °F 63.6 °F 29.95 in SSW 5.3 mph 10.0 mph 72 % 0.00 in
12:57 73.5 °F 62.7 °F 29.95 in SW 7.5 mph 11.5 mph 69 % 0.00 in
13:02 73.9 °F 62.7 °F 29.96 in WSW 9.9 mph 17.3 mph 68 % 0.00 in
13:07 73.9 °F 62.7 °F 29.96 in SW 9.7 mph 18.4 mph 68 % 0.00 in
13:12 74.0 °F 62.8 °F 29.96 in SSW 6.9 mph 10.4 mph 68 % 0.00 in
13:17 74.0 °F 62.8 °F 29.95 in SW 9.6 mph 14.0 mph 68 % 0.00 in
13:22 74.0 °F 62.8 °F 29.95 in SW 6.1 mph 12.0 mph 68 % 0.00 in
13:27 74.2 °F 63.0 °F 29.95 in West 7.3 mph 13.8 mph 68 % 0.00 in
13:32 74.4 °F 62.7 °F 29.95 in SSW 8.0 mph 11.5 mph 67 % 0.00 in
13:37 74.4 °F 62.7 °F 29.95 in SW 11.5 mph 15.0 mph 67 % 0.00 in
13:42 74.2 °F 62.5 °F 29.95 in SW 8.2 mph 17.3 mph 67 % 0.00 in
13:47 74.3 °F 62.6 °F 29.94 in SSW 4.0 mph 13.8 mph 67 % 0.00 in
13:52 74.5 °F 62.8 °F 29.94 in SSW 4.1 mph 6.9 mph 67 % 0.00 in
13:57 74.6 °F 62.5 °F 29.93 in South 6.9 mph 15.0 mph 66 % 0.00 in
14:03 74.7 °F 63.0 °F 29.93 in WSW 3.9 mph 9.2 mph 67 % 0.00 in
14:08 74.9 °F 62.8 °F 29.94 in SSW 3.1 mph 11.5 mph 66 % 0.00 in
14:13 75.2 °F 63.1 °F 29.93 in SSW 6.7 mph 9.2 mph 66 % 0.00 in
14:18 75.4 °F 63.2 °F 29.93 in South 5.5 mph 9.2 mph 66 % 0.00 in
14:23 75.6 °F 63.4 °F 29.93 in South 3.8 mph 8.1 mph 66 % 0.00 in
14:28 75.7 °F 63.1 °F 29.93 in SW 6.6 mph 13.0 mph 65 % 0.00 in
14:33 75.8 °F 63.2 °F 29.93 in South 4.0 mph 8.1 mph 65 % 0.00 in
14:38 76.0 °F 63.4 °F 29.94 in West 6.1 mph 15.0 mph 65 % 0.00 in
14:43 76.0 °F 62.9 °F 29.93 in West 3.8 mph 7.0 mph 64 % 0.00 in
14:48 76.0 °F 62.9 °F 29.93 in WSW 5.8 mph 9.2 mph 64 % 0.00 in
14:53 75.8 °F 62.8 °F 29.93 in South 7.9 mph 10.4 mph 64 % 0.00 in
14:58 75.7 °F 63.1 °F 29.93 in South 6.4 mph 12.7 mph 65 % 0.00 in
15:03 75.5 °F 62.9 °F 29.93 in SSW 4.3 mph 8.1 mph 65 % 0.00 in
15:08 75.5 °F 62.9 °F 29.93 in SSW 4.1 mph 7.0 mph 65 % 0.00 in
15:13 75.4 °F 62.8 °F 29.93 in South 5.4 mph 9.2 mph 65 % 0.00 in
15:18 75.3 °F 62.7 °F 29.93 in South 8.3 mph 12.7 mph 65 % 0.00 in
15:24 75.3 °F 63.2 °F 29.93 in SW 7.4 mph 10.0 mph 66 % 0.00 in
15:29 75.2 °F 62.6 °F 29.93 in SSW 5.1 mph 10.4 mph 65 % 0.00 in
15:34 75.2 °F 62.6 °F 29.93 in SW 4.9 mph 8.1 mph 65 % 0.00 in
15:39 75.1 °F 62.5 °F 29.93 in SW 6.5 mph 11.5 mph 65 % 0.00 in
15:44 75.0 °F 62.4 °F 29.93 in SSW 6.8 mph 11.5 mph 65 % 0.00 in
15:49 74.8 °F 62.2 °F 29.93 in SW 4.4 mph 8.1 mph 65 % 0.00 in
15:54 74.8 °F 62.7 °F 29.93 in SW 4.9 mph 6.9 mph 66 % 0.00 in
15:59 74.6 °F 62.1 °F 29.93 in South 8.6 mph 12.7 mph 65 % 0.00 in
16:04 74.4 °F 62.3 °F 29.93 in South 6.2 mph 12.7 mph 66 % 0.00 in
16:09 74.3 °F 62.2 °F 29.93 in SSW 4.6 mph 5.8 mph 66 % 0.00 in
16:14 74.2 °F 62.1 °F 29.94 in South 5.1 mph 6.9 mph 66 % 0.00 in
16:19 74.0 °F 61.9 °F 29.94 in South 3.5 mph 5.0 mph 66 % 0.00 in
16:25 73.9 °F 61.8 °F 29.94 in South 6.3 mph 8.1 mph 66 % 0.00 in
16:30 73.7 °F 61.6 °F 29.93 in SW 3.7 mph 9.2 mph 66 % 0.00 in
16:35 73.6 °F 61.5 °F 29.93 in SSW 7.7 mph 10.4 mph 66 % 0.00 in
16:40 73.4 °F 61.8 °F 29.93 in SSW 3.6 mph 10.4 mph 67 % 0.00 in
16:45 73.1 °F 61.5 °F 29.93 in South 3.4 mph 9.2 mph 67 % 0.00 in
16:50 72.9 °F 61.7 °F 29.93 in SW 3.5 mph 6.9 mph 68 % 0.00 in
16:55 72.7 °F 61.5 °F 29.94 in SSW 5.0 mph 9.2 mph 68 % 0.00 in
17:00 72.5 °F 61.3 °F 29.94 in SSW 6.8 mph 10.4 mph 68 % 0.00 in
17:05 72.2 °F 61.5 °F 29.94 in SW 4.0 mph 8.1 mph 69 % 0.00 in
17:10 72.0 °F 61.3 °F 29.94 in SSW 4.0 mph 11.5 mph 69 % 0.00 in
17:15 71.7 °F 61.0 °F 29.94 in South 6.1 mph 9.2 mph 69 % 0.00 in
17:20 71.4 °F 61.1 °F 29.95 in SW 8.3 mph 10.0 mph 70 % 0.00 in
17:25 71.1 °F 60.8 °F 29.95 in SW 4.1 mph 8.1 mph 70 % 0.00 in
17:30 70.9 °F 60.6 °F 29.95 in SSW 4.6 mph 10.4 mph 70 % 0.00 in
17:35 70.6 °F 60.7 °F 29.95 in SW 4.7 mph 8.1 mph 71 % 0.00 in
17:40 70.3 °F 60.4 °F 29.96 in SSW 5.6 mph 11.5 mph 71 % 0.00 in
17:45 70.0 °F 60.2 °F 29.97 in SW 5.5 mph 6.9 mph 71 % 0.00 in
17:51 69.7 °F 60.3 °F 29.97 in SSW 6.0 mph 10.0 mph 72 % 0.00 in
17:56 69.5 °F 60.1 °F 29.97 in SSW 3.0 mph 9.0 mph 72 % 0.00 in
18:01 69.2 °F 59.8 °F 29.97 in South 4.3 mph 7.0 mph 72 % 0.00 in
18:06 68.9 °F 59.5 °F 29.96 in South 3.9 mph 5.8 mph 72 % 0.00 in
18:11 68.6 °F 59.6 °F 29.97 in SSW 3.1 mph 7.0 mph 73 % 0.00 in
18:16 68.3 °F 59.3 °F 29.97 in South 4.6 mph 6.9 mph 73 % 0.00 in
18:21 68.0 °F 59.0 °F 29.97 in South 2.7 mph 8.1 mph 73 % 0.00 in
18:26 67.7 °F 58.7 °F 29.98 in SSE 4.1 mph 6.9 mph 73 % 0.00 in
18:31 67.5 °F 58.9 °F 29.98 in SSW 2.9 mph 5.0 mph 74 % 0.00 in
18:36 67.2 °F 58.6 °F 29.98 in SSW 2.5 mph 4.0 mph 74 % 0.00 in
18:46 66.6 °F 58.4 °F 29.99 in WSW 4.0 mph 11.5 mph 75 % 0.00 in
18:51 66.4 °F 58.6 °F 29.99 in SW 3.8 mph 6.9 mph 76 % 0.00 in
18:56 66.3 °F 58.5 °F 29.99 in SW 4.4 mph 5.0 mph 76 % 0.00 in
19:01 66.1 °F 58.7 °F 29.99 in SSW 3.5 mph 6.0 mph 77 % 0.00 in
19:06 66.0 °F 58.9 °F 29.99 in SW 3.3 mph 6.9 mph 78 % 0.00 in
19:11 65.9 °F 58.8 °F 29.98 in SW 5.6 mph 8.1 mph 78 % 0.00 in
19:16 65.9 °F 59.2 °F 29.98 in SSW 3.5 mph 6.9 mph 79 % 0.00 in
19:21 65.9 °F 59.2 °F 29.99 in SSW 3.6 mph 4.6 mph 79 % 0.00 in
19:27 65.9 °F 59.2 °F 29.99 in SSW 1.6 mph 7.0 mph 79 % 0.00 in
19:32 65.9 °F 59.2 °F 30.00 in WSW 3.2 mph 5.8 mph 79 % 0.00 in
19:37 65.9 °F 59.2 °F 30.00 in SW 2.1 mph 4.0 mph 79 % 0.00 in
19:42 65.8 °F 59.1 °F 30.00 in SW 1.5 mph 4.6 mph 79 % 0.00 in
19:47 65.7 °F 59.0 °F 30.00 in WSW 4.3 mph 9.2 mph 79 % 0.00 in
19:52 65.7 °F 59.0 °F 30.00 in SSW 4.0 mph 6.9 mph 79 % 0.00 in
19:57 65.7 °F 59.0 °F 30.00 in WSW 4.9 mph 8.1 mph 79 % 0.00 in
20:02 65.7 °F 59.0 °F 30.02 in WNW 3.3 mph 8.0 mph 79 % 0.00 in
20:07 65.7 °F 59.0 °F 30.03 in West 3.4 mph 8.1 mph 79 % 0.00 in
20:12 65.5 °F 58.8 °F 30.02 in South 0.6 mph 2.3 mph 79 % 0.00 in
20:17 65.5 °F 59.2 °F 30.03 in SW 4.4 mph 6.9 mph 80 % 0.00 in
20:22 65.4 °F 59.4 °F 30.04 in SW 2.1 mph 3.5 mph 81 % 0.00 in
20:27 64.9 °F 57.2 °F 30.06 in NNW 6.3 mph 13.0 mph 76 % 0.00 in
20:32 63.9 °F 55.8 °F 30.06 in NW 3.4 mph 4.6 mph 75 % 0.00 in
20:37 63.2 °F 56.2 °F 30.08 in WNW 2.2 mph 4.6 mph 78 % 0.00 in
20:42 62.6 °F 56.0 °F 30.08 in NNW 3.0 mph 4.6 mph 79 % 0.00 in
20:47 61.8 °F 55.2 °F 30.08 in NNE 3.3 mph 6.0 mph 79 % 0.00 in
20:52 60.9 °F 54.0 °F 30.09 in North 2.9 mph 6.0 mph 78 % 0.00 in
20:57 59.8 °F 53.3 °F 30.09 in North 6.8 mph 13.8 mph 79 % 0.00 in
21:02 58.8 °F 52.6 °F 30.09 in North 10.0 mph 15.0 mph 80 % 0.00 in
21:07 58.0 °F 52.2 °F 30.09 in North 8.5 mph 14.0 mph 81 % 0.00 in
21:13 57.5 °F 52.4 °F 30.09 in North 9.2 mph 12.7 mph 83 % 0.00 in
21:18 57.2 °F 52.1 °F 30.10 in North 7.4 mph 11.5 mph 83 % 0.00 in
21:23 56.7 °F 51.6 °F 30.10 in NNE 9.5 mph 12.0 mph 83 % 0.00 in
21:28 56.1 °F 51.3 °F 30.11 in NNE 8.8 mph 13.0 mph 84 % 0.00 in
21:33 55.7 °F 51.3 °F 30.12 in North 7.5 mph 16.1 mph 85 % 0.00 in
21:38 55.2 °F 51.1 °F 30.11 in North 10.6 mph 16.1 mph 86 % 0.00 in
21:43 54.8 °F 51.3 °F 30.12 in North 7.7 mph 11.5 mph 88 % 0.01 in
21:48 54.6 °F 51.4 °F 30.12 in NNE 7.8 mph 11.5 mph 89 % 0.01 in
21:53 54.4 °F 51.2 °F 30.12 in NNE 8.9 mph 12.7 mph 89 % 0.02 in
21:58 53.9 °F 50.4 °F 30.12 in NNE 7.3 mph 10.4 mph 88 % 0.02 in
22:03 53.5 °F 50.0 °F 30.11 in NNE 7.0 mph 10.4 mph 88 % 0.03 in
22:08 53.2 °F 49.7 °F 30.11 in NNE 7.7 mph 10.4 mph 88 % 0.03 in
22:13 52.9 °F 49.4 °F 30.12 in North 6.8 mph 9.2 mph 88 % 0.03 in
22:18 52.7 °F 49.2 °F 30.12 in North 7.2 mph 9.2 mph 88 % 0.03 in
22:23 52.6 °F 49.1 °F 30.12 in NNE 7.3 mph 10.4 mph 88 % 0.03 in
22:28 52.4 °F 48.6 °F 30.13 in NNE 7.5 mph 11.5 mph 87 % 0.03 in
22:33 52.0 °F 47.9 °F 30.13 in North 6.1 mph 9.2 mph 86 % 0.03 in
22:39 51.7 °F 47.6 °F 30.13 in North 6.2 mph 8.1 mph 86 % 0.03 in
22:44 51.5 °F 47.5 °F 30.13 in NE 6.3 mph 11.5 mph 86 % 0.02 in
22:49 51.6 °F 47.9 °F 30.12 in NNE 8.0 mph 11.5 mph 87 % 0.02 in
22:54 51.8 °F 48.1 °F 30.12 in NNE 6.6 mph 10.4 mph 87 % 0.01 in
22:59 51.9 °F 47.5 °F 30.12 in North 8.4 mph 11.5 mph 85 % 0.01 in
23:04 52.0 °F 47.0 °F 30.13 in North 6.9 mph 10.4 mph 83 % 0.00 in
23:09 52.0 °F 46.3 °F 30.12 in NE 9.4 mph 14.0 mph 81 % 0.00 in
23:14 52.0 °F 46.0 °F 30.13 in NE 6.7 mph 11.0 mph 80 % 0.00 in
23:19 52.1 °F 45.8 °F 30.14 in North 6.1 mph 10.4 mph 79 % 0.00 in
23:24 52.3 °F 45.6 °F 30.15 in NNE 3.8 mph 10.0 mph 78 % 0.00 in
23:29 52.3 °F 45.3 °F 30.15 in NNW 5.1 mph 6.9 mph 77 % 0.00 in
23:34 52.2 °F 45.2 °F 30.15 in North 2.9 mph 4.0 mph 77 % 0.00 in
23:39 52.2 °F 44.9 °F 30.14 in North 4.1 mph 8.1 mph 76 % 0.00 in
23:44 52.1 °F 44.4 °F 30.15 in North 4.7 mph 9.2 mph 75 % 0.00 in
23:49 52.0 °F 44.0 °F 30.15 in North 5.7 mph 10.4 mph 74 % 0.00 in
23:54 52.1 °F 43.7 °F 30.15 in North 4.2 mph 6.9 mph 73 % 0.00 in
23:59 52.2 °F 43.4 °F 30.15 in North 5.9 mph 10.4 mph 72 % 0.00 in
Crab Meadow Weather
Compliments of Weather Underground - 3 mb

Script developed by  Jim McMurry - jmcmurry@mwt.net Adapted for the template by  Wim van der Kuil - Leuven-Template.eu

Barometer: A barometer is an instrument used to measure atmospheric pressure. A barometer is commonly used for weather prediction, as high air pressure in a region indicates fair weather while low pressure indicates that storms are more likely. When used in combination with wind observations, reasonably accurate short-term forecasts can be made.